Terminal Aerodrome Forecast
Issued by NWS

Home | Current Version | Previous Version | Text Only | Print | Product List | Glossary On
Versions: 1 2 3 4 5 6 7 8 9 10 11 12 13 14
026
FTUS44 KBMX 290520
TAFANB
TAF
KANB 290520Z 2906/3006 36009G18KT P6SM SCT070 SCT100
     FM290830 35009KT P6SM SCT060
     FM291600 32010KT P6SM SKC
     FM300000 33007KT P6SM BKN050=

USA.gov is the U.S. government's official web portal to all federal, state and local government web resources and services.